Time;durP1;ratioP1;P1;durP2;ratioP2;P2;SDS_P1;SDS_P2;PMS_P1;PMS_P2;Temp;Humidity;BMP_temperature;BMP_pressure;BME280_temperature;BME280_humidity;BME280_pressure;Samples;Min_cycle;Max_cycle;Signal;HPM_P1;HPM_P2
2022/06/19 00:00:16;;;;;;;;;;;27.80;38.90;;;;;;857188;23;789;-91
2022/06/19 00:00:37;;;;;;;;;;;27.80;39.00;;;;;;857216;23;916;-89
2022/06/19 00:00:58;;;;;;;;;;;27.80;39.00;;;;;;857513;23;877;-92
2022/06/19 00:01:20;;;;;;;;;;;27.70;38.70;;;;;;857331;23;761;-92
2022/06/19 00:01:40;;;;;;;;;;;27.80;38.80;;;;;;857325;23;825;-88
2022/06/19 00:02:01;;;;;;;;;;;25.80;37.50;;;;;;857391;23;920;-90
2022/06/19 00:02:22;;;;;;;;;;;27.80;38.90;;;;;;857361;23;674;-90
2022/06/19 00:02:43;;;;;;;;;;;27.80;38.90;;;;;;857426;23;878;-92
2022/06/19 00:03:06;;;;;;;;;;;27.70;39.00;;;;;;857470;23;841;-90
2022/06/19 00:03:29;;;;;;;;;;;27.80;39.10;;;;;;857435;23;825;-91
2022/06/19 00:03:51;;;;;;;;;;;27.70;39.00;;;;;;857382;23;840;-92
2022/06/19 00:04:12;;;;;;;;;;;27.80;39.10;;;;;;857242;23;1356;-90
2022/06/19 00:04:33;;;;;;;;;;;27.80;39.00;;;;;;857323;23;809;-93
2022/06/19 00:04:55;;;;;;;;;;;27.70;39.50;;;;;;857090;23;1195;-92
2022/06/19 00:05:15;;;;;;;;;;;27.80;39.00;;;;;;852895;23;1314;-93
2022/06/19 00:05:36;;;;;;;;;;;27.80;39.00;;;;;;852955;23;790;-89
2022/06/19 00:05:57;;;;;;;;;;;27.70;39.00;;;;;;853045;23;917;-92
2022/06/19 00:06:18;;;;;;;;;;;27.80;39.00;;;;;;853003;23;841;-92
2022/06/19 00:06:39;;;;;;;;;;;27.70;38.90;;;;;;854018;23;798;-90
2022/06/19 00:07:00;;;;;;;;;;;27.80;39.10;;;;;;857348;23;870;-91
2022/06/19 00:07:21;;;;;;;;;;;27.70;38.80;;;;;;857506;23;1877;-86
2022/06/19 00:07:41;;;;;;;;;;;27.80;39.10;;;;;;857615;23;876;-92
2022/06/19 00:08:03;;;;;;;;;;;27.70;38.80;;;;;;857640;23;1336;-91
2022/06/19 00:08:23;;;;;;;;;;;27.70;39.00;;;;;;857867;23;1320;-92
2022/06/19 00:08:47;;;;;;;;;;;27.80;39.40;;;;;;857296;23;1315;-92
2022/06/19 00:09:07;;;;;;;;;;;27.70;39.00;;;;;;857340;23;794;-91
2022/06/19 00:09:28;;;;;;;;;;;27.70;39.20;;;;;;857668;23;861;-90
2022/06/19 00:09:49;;;;;;;;;;;27.70;39.00;;;;;;857265;23;782;-93
2022/06/19 00:10:10;;;;;;;;;;;27.70;38.60;;;;;;857623;23;829;-91
2022/06/19 00:10:30;;;;;;;;;;;27.70;38.70;;;;;;854634;23;1240;-95
2022/06/19 00:10:52;;;;;;;;;;;27.70;38.70;;;;;;857853;23;757;-91
2022/06/19 00:11:14;;;;;;;;;;;27.70;39.10;;;;;;852717;23;1599;-91
2022/06/19 00:11:35;;;;;;;;;;;27.70;38.70;;;;;;853396;23;809;-89
2022/06/19 00:11:56;;;;;;;;;;;27.70;38.80;;;;;;853196;23;813;-91
2022/06/19 00:12:18;;;;;;;;;;;27.70;38.70;;;;;;854182;23;789;-91
2022/06/19 00:12:38;;;;;;;;;;;27.70;38.80;;;;;;857177;23;817;-90
2022/06/19 00:12:59;;;;;;;;;;;27.70;38.70;;;;;;857675;23;1026;-94
2022/06/19 00:13:20;;;;;;;;;;;27.70;39.10;;;;;;857825;23;560;-93
2022/06/19 00:13:40;;;;;;;;;;;27.70;39.00;;;;;;857743;23;825;-93
2022/06/19 00:14:01;;;;;;;;;;;27.70;38.90;;;;;;857872;23;880;-85
2022/06/19 00:14:22;;;;;;;;;;;27.70;38.90;;;;;;857917;23;828;-89
2022/06/19 00:14:43;;;;;;;;;;;27.70;39.00;;;;;;857870;23;1416;-91
2022/06/19 00:15:04;;;;;;;;;;;27.70;38.80;;;;;;857845;23;1307;-91
2022/06/19 00:15:24;;;;;;;;;;;27.70;38.90;;;;;;857908;23;512;-92
2022/06/19 00:15:45;;;;;;;;;;;27.70;38.80;;;;;;857755;23;1399;-93
2022/06/19 00:16:06;;;;;;;;;;;27.70;38.80;;;;;;859798;23;821;-86
2022/06/19 00:16:26;;;;;;;;;;;27.70;38.80;;;;;;860384;23;852;-91
2022/06/19 00:16:47;;;;;;;;;;;27.70;38.90;;;;;;860831;23;1364;-86
2022/06/19 00:17:09;;;;;;;;;;;27.70;38.90;;;;;;860735;23;981;-82
2022/06/19 00:17:29;;;;;;;;;;;27.70;39.00;;;;;;861068;23;844;-80
2022/06/19 00:17:50;;;;;;;;;;;27.70;39.20;;;;;;860768;23;920;-85
2022/06/19 00:18:10;;;;;;;;;;;27.70;39.00;;;;;;860969;23;892;-82
2022/06/19 00:18:31;;;;;;;;;;;27.70;39.00;;;;;;861092;23;907;-80
2022/06/19 00:18:52;;;;;;;;;;;27.70;39.00;;;;;;860505;23;828;-84
2022/06/19 00:19:13;;;;;;;;;;;27.70;38.90;;;;;;860735;23;1301;-82
2022/06/19 00:19:33;;;;;;;;;;;27.70;39.00;;;;;;860053;23;905;-89
2022/06/19 00:19:54;;;;;;;;;;;27.70;39.00;;;;;;860814;23;900;-86
2022/06/19 00:20:14;;;;;;;;;;;27.70;39.10;;;;;;860823;23;896;-79
2022/06/19 00:20:35;;;;;;;;;;;27.70;39.10;;;;;;860884;22;817;-85
2022/06/19 00:20:56;;;;;;;;;;;27.70;39.10;;;;;;860401;23;854;-85
2022/06/19 00:21:17;;;;;;;;;;;27.70;39.20;;;;;;860978;23;837;-80
2022/06/19 00:21:37;;;;;;;;;;;27.70;38.80;;;;;;860894;23;817;-80
2022/06/19 00:21:58;;;;;;;;;;;27.70;39.00;;;;;;860825;23;797;-90
2022/06/19 00:22:19;;;;;;;;;;;27.70;39.10;;;;;;857828;23;769;-92
2022/06/19 00:22:40;;;;;;;;;;;27.70;38.90;;;;;;859675;23;861;-90
2022/06/19 00:23:00;;;;;;;;;;;27.70;39.00;;;;;;860882;23;1328;-87
2022/06/19 00:23:21;;;;;;;;;;;27.70;39.10;;;;;;860999;23;770;-81
2022/06/19 00:23:42;;;;;;;;;;;27.70;38.70;;;;;;860898;23;817;-82
2022/06/19 00:24:03;;;;;;;;;;;27.70;38.90;;;;;;860818;23;1356;-84
2022/06/19 00:24:23;;;;;;;;;;;27.60;39.10;;;;;;860959;23;804;-81
2022/06/19 00:24:44;;;;;;;;;;;27.70;39.40;;;;;;860850;23;861;-81
2022/06/19 00:25:05;;;;;;;;;;;27.70;39.20;;;;;;861137;23;797;-82
2022/06/19 00:25:26;;;;;;;;;;;27.70;39.20;;;;;;860861;23;798;-80
2022/06/19 00:25:46;;;;;;;;;;;27.70;39.10;;;;;;860903;23;856;-90
2022/06/19 00:26:07;;;;;;;;;;;27.70;39.10;;;;;;860737;22;1238;-83
2022/06/19 00:26:27;;;;;;;;;;;27.70;39.10;;;;;;860831;23;932;-85
2022/06/19 00:26:48;;;;;;;;;;;27.70;39.20;;;;;;860884;23;873;-87
2022/06/19 00:27:08;;;;;;;;;;;27.70;39.70;;;;;;860690;22;1907;-81
2022/06/19 00:27:29;;;;;;;;;;;27.70;39.10;;;;;;861047;23;908;-89
2022/06/19 00:27:50;;;;;;;;;;;27.70;39.00;;;;;;860904;23;950;-85
2022/06/19 00:28:10;;;;;;;;;;;27.70;38.90;;;;;;861022;22;825;-80
2022/06/19 00:28:31;;;;;;;;;;;27.60;39.30;;;;;;860900;23;1187;-81
2022/06/19 00:28:51;;;;;;;;;;;27.70;39.30;;;;;;860756;23;845;-81
2022/06/19 00:29:12;;;;;;;;;;;27.70;38.90;;;;;;860677;23;750;-85
2022/06/19 00:29:32;;;;;;;;;;;27.70;39.00;;;;;;860889;23;797;-82
2022/06/19 00:29:53;;;;;;;;;;;27.70;38.80;;;;;;860723;23;877;-85
2022/06/19 00:30:14;;;;;;;;;;;27.60;38.90;;;;;;860889;23;1042;-87
2022/06/19 00:30:34;;;;;;;;;;;27.60;39.20;;;;;;858695;23;1011;-94
2022/06/19 00:30:55;;;;;;;;;;;27.60;39.10;;;;;;858479;23;999;-92
2022/06/19 00:31:16;;;;;;;;;;;27.40;40.10;;;;;;854008;23;1079;-93
2022/06/19 00:31:37;;;;;;;;;;;27.60;38.80;;;;;;854322;23;1312;-85
2022/06/19 00:31:58;;;;;;;;;;;27.70;38.90;;;;;;853956;23;824;-91
2022/06/19 00:32:20;;;;;;;;;;;27.60;39.00;;;;;;853694;23;873;-93
2022/06/19 00:32:41;;;;;;;;;;;27.70;39.10;;;;;;853827;23;806;-84
2022/06/19 00:33:01;;;;;;;;;;;27.60;39.20;;;;;;855007;23;805;-88
2022/06/19 00:33:22;;;;;;;;;;;27.60;39.10;;;;;;860563;23;813;-82
2022/06/19 00:33:42;;;;;;;;;;;27.60;38.90;;;;;;860667;23;881;-83
2022/06/19 00:34:03;;;;;;;;;;;27.30;38.80;;;;;;860656;23;1019;-86
2022/06/19 00:34:24;;;;;;;;;;;27.60;39.10;;;;;;860787;23;813;-85
2022/06/19 00:34:44;;;;;;;;;;;27.60;38.60;;;;;;860655;23;794;-89
2022/06/19 00:35:05;;;;;;;;;;;27.60;38.70;;;;;;859746;23;908;-92
2022/06/19 00:35:26;;;;;;;;;;;27.60;39.00;;;;;;858002;23;809;-93
2022/06/19 00:35:47;;;;;;;;;;;27.60;39.00;;;;;;857378;23;746;-93
2022/06/19 00:36:08;;;;;;;;;;;27.60;38.90;;;;;;857418;23;955;-92
2022/06/19 00:36:28;;;;;;;;;;;27.60;38.80;;;;;;857669;23;849;-94
2022/06/19 00:36:49;;;;;;;;;;;27.60;38.90;;;;;;858478;23;834;-92
2022/06/19 00:37:10;;;;;;;;;;;27.60;38.70;;;;;;858365;23;817;-92
2022/06/19 00:37:31;;;;;;;;;;;27.60;39.00;;;;;;858345;23;873;-85
2022/06/19 00:37:52;;;;;;;;;;;27.60;39.30;;;;;;858139;23;777;-91
2022/06/19 00:38:13;;;;;;;;;;;27.60;39.30;;;;;;857790;23;861;-90
2022/06/19 00:38:34;;;;;;;;;;;27.60;39.70;;;;;;857944;23;793;-93
2022/06/19 00:38:55;;;;;;;;;;;27.60;39.40;;;;;;857728;23;805;-90
2022/06/19 00:39:16;;;;;;;;;;;27.60;39.50;;;;;;857458;23;789;-91
2022/06/19 00:39:39;;;;;;;;;;;27.60;39.60;;;;;;853360;23;1051;-88
2022/06/19 00:39:59;;;;;;;;;;;27.60;39.70;;;;;;854106;23;797;-92
2022/06/19 00:40:21;;;;;;;;;;;27.60;39.30;;;;;;854011;23;976;-92
2022/06/19 00:40:41;;;;;;;;;;;27.30;39.20;;;;;;854201;23;833;-90
2022/06/19 00:41:02;;;;;;;;;;;27.60;39.50;;;;;;853745;23;1067;-90
2022/06/19 00:41:23;;;;;;;;;;;27.60;39.50;;;;;;854765;23;834;-93
2022/06/19 00:41:44;;;;;;;;;;;27.60;39.30;;;;;;857409;23;801;-92
2022/06/19 00:42:06;;;;;;;;;;;27.60;39.10;;;;;;857458;23;825;-93
2022/06/19 00:42:28;;;;;;;;;;;27.60;39.30;;;;;;857595;23;817;-90
2022/06/19 00:42:49;;;;;;;;;;;27.60;39.10;;;;;;857356;23;955;-93
2022/06/19 00:43:10;;;;;;;;;;;27.60;39.20;;;;;;852865;23;864;-93
2022/06/19 00:43:30;;;;;;;;;;;27.60;39.00;;;;;;848858;23;1112;-93
2022/06/19 00:43:52;;;;;;;;;;;27.60;39.20;;;;;;848895;23;1396;-82
2022/06/19 00:44:13;;;;;;;;;;;27.60;39.10;;;;;;848892;23;766;-92
2022/06/19 00:44:34;;;;;;;;;;;27.60;39.30;;;;;;848998;23;786;-90
2022/06/19 00:44:55;;;;;;;;;;;27.60;39.00;;;;;;849645;23;893;-93
2022/06/19 00:45:34;;;;;;;;;;;27.60;39.20;;;;;;853819;23;822;-89
2022/06/19 00:45:58;;;;;;;;;;;27.60;38.90;;;;;;857099;23;821;-94
2022/06/19 00:46:37;;;;;;;;;;;27.70;38.90;;;;;;857106;23;790;-89
2022/06/19 00:47:16;;;;;;;;;;;27.70;39.10;;;;;;852890;23;1215;-93
2022/06/19 00:47:39;;;;;;;;;;;27.70;38.80;;;;;;852912;23;786;-89
2022/06/19 00:48:23;;;;;;;;;;;27.70;39.30;;;;;;853128;23;545;-91
2022/06/19 00:48:43;;;;;;;;;;;27.70;38.80;;;;;;841250;23;1071;-94
2022/06/19 00:49:04;;;;;;;;;;;27.70;38.80;;;;;;844712;23;1004;-92
2022/06/19 00:49:33;;;;;;;;;;;27.70;38.70;;;;;;844682;23;766;-90
2022/06/19 00:49:56;;;;;;;;;;;27.70;38.70;;;;;;844585;23;814;-89
2022/06/19 00:50:19;;;;;;;;;;;27.70;38.70;;;;;;844579;23;878;-86
2022/06/19 00:50:40;;;;;;;;;;;27.70;38.80;;;;;;844721;23;870;-90
2022/06/19 00:51:02;;;;;;;;;;;27.70;39.00;;;;;;840571;23;1366;-81
2022/06/19 00:51:22;;;;;;;;;;;27.70;38.80;;;;;;840426;23;937;-92
2022/06/19 00:51:43;;;;;;;;;;;27.70;39.00;;;;;;840499;23;1019;-93
2022/06/19 00:52:12;;;;;;;;;;;27.70;39.00;;;;;;840749;23;1110;-92
2022/06/19 00:52:34;;;;;;;;;;;27.70;38.80;;;;;;840678;23;814;-91
2022/06/19 00:52:55;;;;;;;;;;;27.70;38.80;;;;;;843336;23;802;-86
2022/06/19 00:53:39;;;;;;;;;;;27.70;38.70;;;;;;844600;23;810;-92
2022/06/19 00:53:59;;;;;;;;;;;27.70;38.60;;;;;;833058;23;1248;-90
2022/06/19 00:54:21;;;;;;;;;;;27.70;38.60;;;;;;844557;23;873;-90
2022/06/19 00:54:43;;;;;;;;;;;27.70;38.70;;;;;;844505;23;866;-91
2022/06/19 00:55:08;;;;;;;;;;;27.40;38.40;;;;;;844775;23;794;-89
2022/06/19 00:55:32;;;;;;;;;;;27.70;38.60;;;;;;844490;23;755;-90
2022/06/19 00:55:53;;;;;;;;;;;27.70;38.60;;;;;;844511;23;790;-85
2022/06/19 00:56:16;;;;;;;;;;;27.70;38.70;;;;;;844667;23;878;-90
2022/06/19 00:56:37;;;;;;;;;;;27.70;38.70;;;;;;844553;23;779;-91
2022/06/19 00:56:58;;;;;;;;;;;27.70;38.70;;;;;;844562;23;1339;-91
2022/06/19 00:57:19;;;;;;;;;;;27.70;38.60;;;;;;844663;23;810;-91
2022/06/19 00:57:41;;;;;;;;;;;27.70;38.70;;;;;;844585;23;825;-93
2022/06/19 00:58:11;;;;;;;;;;;27.70;38.60;;;;;;844795;23;794;-89
2022/06/19 00:58:34;;;;;;;;;;;27.70;38.60;;;;;;844718;23;928;-91
2022/06/19 00:58:56;;;;;;;;;;;27.70;38.60;;;;;;844602;23;751;-91
2022/06/19 00:59:18;;;;;;;;;;;27.70;38.50;;;;;;846659;23;929;-91
2022/06/19 00:59:40;;;;;;;;;;;27.70;38.70;;;;;;847531;23;869;-90
2022/06/19 01:00:26;;;;;;;;;;;27.70;38.60;;;;;;846845;23;976;-92
2022/06/19 01:00:50;;;;;;;;;;;27.70;38.90;;;;;;832528;23;1047;-94
2022/06/19 01:01:19;;;;;;;;;;;27.70;39.00;;;;;;832498;23;858;-81
2022/06/19 01:01:40;;;;;;;;;;;27.70;38.70;;;;;;832618;23;1121;-92
2022/06/19 01:02:02;;;;;;;;;;;27.70;38.60;;;;;;832689;23;855;-95
2022/06/19 01:02:22;;;;;;;;;;;27.70;38.60;;;;;;832766;23;775;-91
2022/06/19 01:02:44;;;;;;;;;;;27.70;38.50;;;;;;832653;23;795;-93
2022/06/19 01:03:04;;;;;;;;;;;27.70;38.50;;;;;;832888;23;814;-94
2022/06/19 01:03:29;;;;;;;;;;;27.70;38.50;;;;;;832770;23;990;-91
2022/06/19 01:03:59;;;;;;;;;;;27.70;38.50;;;;;;832632;23;1476;-94
2022/06/19 01:04:30;;;;;;;;;;;27.70;38.70;;;;;;832685;23;803;-93
2022/06/19 01:04:52;;;;;;;;;;;27.70;38.50;;;;;;832541;23;838;-92
2022/06/19 01:05:14;;;;;;;;;;;27.70;38.50;;;;;;828655;23;902;-94
2022/06/19 01:05:35;;;;;;;;;;;27.70;38.50;;;;;;828740;23;1388;-91
2022/06/19 01:05:56;;;;;;;;;;;27.70;39.60;;;;;;828721;23;965;-89
2022/06/19 01:06:16;;;;;;;;;;;27.70;38.70;;;;;;828862;23;862;-93
2022/06/19 01:06:37;;;;;;;;;;;27.70;38.40;;;;;;828922;23;1074;-94
2022/06/19 01:06:58;;;;;;;;;;;27.70;38.80;;;;;;829821;23;787;-93
2022/06/19 01:07:19;;;;;;;;;;;27.70;38.50;;;;;;832578;23;1893;-95
2022/06/19 01:07:40;;;;;;;;;;;27.70;38.60;;;;;;832689;23;894;-93
2022/06/19 01:08:01;;;;;;;;;;;27.70;38.50;;;;;;832834;23;803;-82
2022/06/19 01:08:23;;;;;;;;;;;27.70;38.50;;;;;;832646;23;814;-88
2022/06/19 01:08:44;;;;;;;;;;;27.70;38.50;;;;;;832602;23;811;-93
2022/06/19 01:09:04;;;;;;;;;;;27.70;38.60;;;;;;832783;23;960;-95
2022/06/19 01:09:25;;;;;;;;;;;27.70;38.50;;;;;;832717;23;863;-94
2022/06/19 01:09:45;;;;;;;;;;;27.70;38.50;;;;;;832665;23;830;-89
2022/06/19 01:10:06;;;;;;;;;;;27.70;38.50;;;;;;832695;23;783;-83
2022/06/19 01:10:27;;;;;;;;;;;27.70;38.50;;;;;;832729;23;767;-93
2022/06/19 01:11:46;;;;;;;;;;;27.60;38.40;;;;;;832619;23;1153;-94
2022/06/19 01:12:08;;;;;;;;;;;27.70;38.40;;;;;;832718;23;882;-86
2022/06/19 01:12:29;;;;;;;;;;;27.70;38.50;;;;;;832793;23;850;-95
2022/06/19 01:12:49;;;;;;;;;;;27.70;38.50;;;;;;832281;23;1083;-90
2022/06/19 01:13:11;;;;;;;;;;;27.70;38.80;;;;;;832520;23;823;-94
2022/06/19 01:13:32;;;;;;;;;;;27.70;38.50;;;;;;832684;23;875;-92
2022/06/19 01:13:53;;;;;;;;;;;27.70;38.50;;;;;;832553;23;1092;-94
2022/06/19 01:14:14;;;;;;;;;;;27.70;38.50;;;;;;832590;23;803;-94
2022/06/19 01:14:35;;;;;;;;;;;27.70;38.50;;;;;;832879;23;878;-94
2022/06/19 01:15:01;;;;;;;;;;;27.60;38.50;;;;;;832642;23;901;-91
2022/06/19 01:15:23;;;;;;;;;;;27.60;38.40;;;;;;832673;23;890;-93
2022/06/19 01:15:43;;;;;;;;;;;27.70;38.50;;;;;;832729;23;822;-91
2022/06/19 01:16:05;;;;;;;;;;;27.60;38.40;;;;;;833145;23;810;-89
2022/06/19 01:16:25;;;;;;;;;;;27.60;38.50;;;;;;833000;23;823;-93
2022/06/19 01:16:46;;;;;;;;;;;27.70;38.50;;;;;;832909;23;748;-92
2022/06/19 01:17:08;;;;;;;;;;;27.70;38.50;;;;;;832889;23;1119;-89
2022/06/19 01:17:30;;;;;;;;;;;27.70;38.50;;;;;;833097;23;835;-91
2022/06/19 01:17:56;;;;;;;;;;;27.60;38.40;;;;;;832918;23;1004;-81
2022/06/19 01:18:17;;;;;;;;;;;27.60;38.40;;;;;;832953;23;868;-93
2022/06/19 01:18:38;;;;;;;;;;;27.60;38.60;;;;;;832937;23;792;-92
2022/06/19 01:18:59;;;;;;;;;;;27.60;38.50;;;;;;833137;23;1008;-94
2022/06/19 01:19:22;;;;;;;;;;;27.70;38.50;;;;;;832813;23;1070;-90
2022/06/19 01:19:44;;;;;;;;;;;27.60;38.40;;;;;;832771;23;854;-89
2022/06/19 01:20:05;;;;;;;;;;;27.60;38.30;;;;;;833075;23;862;-91
2022/06/19 01:20:27;;;;;;;;;;;27.60;38.40;;;;;;832998;23;1052;-92
2022/06/19 01:20:49;;;;;;;;;;;27.60;38.50;;;;;;832970;23;970;-92
2022/06/19 01:21:14;;;;;;;;;;;27.60;38.40;;;;;;832931;23;759;-93
2022/06/19 01:21:53;;;;;;;;;;;27.60;38.50;;;;;;833061;23;526;-89
2022/06/19 01:22:16;;;;;;;;;;;27.60;38.40;;;;;;832726;23;798;-91
2022/06/19 01:22:37;;;;;;;;;;;27.60;38.50;;;;;;832679;23;826;-91
2022/06/19 01:23:06;;;;;;;;;;;27.60;38.50;;;;;;828966;23;1338;-88
2022/06/19 01:23:36;;;;;;;;;;;27.60;38.60;;;;;;825154;24;1381;-93
2022/06/19 01:24:10;;;;;;;;;;;27.60;38.60;;;;;;825378;24;799;-91
2022/06/19 01:24:30;;;;;;;;;;;27.60;38.60;;;;;;825460;24;756;-92
2022/06/19 01:25:09;;;;;;;;;;;27.60;38.50;;;;;;827463;23;796;-92
2022/06/19 01:25:31;;;;;;;;;;;27.60;38.40;;;;;;836045;23;1049;-86
2022/06/19 01:25:52;;;;;;;;;;;27.60;38.60;;;;;;835476;23;927;-86
2022/06/19 01:26:13;;;;;;;;;;;27.60;38.50;;;;;;835678;23;1416;-80
2022/06/19 01:26:39;;;;;;;;;;;27.60;38.60;;;;;;835490;23;763;-83
2022/06/19 01:27:01;;;;;;;;;;;27.60;38.50;;;;;;843270;23;842;-82
2022/06/19 01:28:46;;;;;;;;;;;27.60;38.40;;;;;;843653;23;625;-86
2022/06/19 01:29:07;;;;;;;;;;;27.60;38.50;;;;;;843607;23;818;-80
2022/06/19 01:29:31;;;;;;;;;;;27.60;38.40;;;;;;843841;23;759;-87
2022/06/19 01:29:51;;;;;;;;;;;27.60;38.50;;;;;;844154;23;794;-83
2022/06/19 01:30:12;;;;;;;;;;;27.60;38.50;;;;;;844075;23;1032;-80
2022/06/19 01:30:34;;;;;;;;;;;27.60;38.50;;;;;;844249;23;897;-85
2022/06/19 01:30:55;;;;;;;;;;;27.60;38.50;;;;;;843152;23;882;-92
2022/06/19 01:31:19;;;;;;;;;;;27.60;38.40;;;;;;842529;23;858;-89
2022/06/19 01:31:41;;;;;;;;;;;27.60;38.60;;;;;;841829;23;914;-87
2022/06/19 01:32:05;;;;;;;;;;;27.60;38.80;;;;;;842371;23;997;-84
2022/06/19 01:32:25;;;;;;;;;;;27.60;38.40;;;;;;841746;23;1460;-88
2022/06/19 01:32:48;;;;;;;;;;;27.60;38.50;;;;;;842010;23;862;-81
2022/06/19 01:33:11;;;;;;;;;;;27.60;38.70;;;;;;839395;23;890;-83
2022/06/19 01:33:39;;;;;;;;;;;27.60;38.60;;;;;;840265;23;818;-80
2022/06/19 01:34:02;;;;;;;;;;;27.60;38.60;;;;;;839961;23;925;-82
2022/06/19 01:34:28;;;;;;;;;;;27.50;38.60;;;;;;839978;23;1424;-81
2022/06/19 01:34:49;;;;;;;;;;;27.60;38.50;;;;;;839926;23;870;-84
2022/06/19 01:35:10;;;;;;;;;;;27.60;38.70;;;;;;843820;23;842;-81
2022/06/19 01:35:33;;;;;;;;;;;27.60;38.90;;;;;;844168;23;889;-86
2022/06/19 01:35:55;;;;;;;;;;;27.60;38.80;;;;;;844054;23;878;-83
2022/06/19 01:36:17;;;;;;;;;;;27.50;38.60;;;;;;842905;23;1001;-91
2022/06/19 01:36:37;;;;;;;;;;;27.60;38.60;;;;;;841542;23;909;-88
2022/06/19 01:36:58;;;;;;;;;;;27.60;38.50;;;;;;838372;23;1178;-90
2022/06/19 01:37:24;;;;;;;;;;;27.60;38.70;;;;;;838521;23;827;-90
2022/06/19 01:37:45;;;;;;;;;;;27.50;38.30;;;;;;837644;23;787;-92
2022/06/19 01:38:12;;;;;;;;;;;27.60;38.50;;;;;;837356;23;803;-87
2022/06/19 01:38:33;;;;;;;;;;;27.60;38.50;;;;;;837248;23;818;-94
2022/06/19 01:38:54;;;;;;;;;;;27.60;38.40;;;;;;853344;23;1301;-93
2022/06/19 01:39:15;;;;;;;;;;;27.60;38.40;;;;;;857173;23;999;-92
2022/06/19 01:39:38;;;;;;;;;;;27.50;38.50;;;;;;857253;23;782;-92
2022/06/19 01:40:03;;;;;;;;;;;27.50;38.50;;;;;;857517;23;758;-93
2022/06/19 01:40:26;;;;;;;;;;;27.50;38.80;;;;;;857060;23;794;-93
2022/06/19 01:40:51;;;;;;;;;;;27.50;38.50;;;;;;857177;23;944;-93
2022/06/19 01:41:14;;;;;;;;;;;27.50;38.40;;;;;;857400;23;794;-92
2022/06/19 01:41:36;;;;;;;;;;;27.50;38.40;;;;;;857538;23;806;-92
2022/06/19 01:41:57;;;;;;;;;;;27.60;38.70;;;;;;857294;23;763;-93
2022/06/19 01:42:17;;;;;;;;;;;27.60;38.50;;;;;;857192;23;790;-92
2022/06/19 01:42:38;;;;;;;;;;;27.50;38.40;;;;;;857261;23;822;-94
2022/06/19 01:42:58;;;;;;;;;;;27.50;38.40;;;;;;857233;23;908;-93
2022/06/19 01:43:20;;;;;;;;;;;27.60;38.50;;;;;;857169;23;798;-93
2022/06/19 01:43:40;;;;;;;;;;;27.50;38.30;;;;;;857222;23;774;-89
2022/06/19 01:44:01;;;;;;;;;;;27.50;38.30;;;;;;857305;23;797;-93
2022/06/19 01:44:21;;;;;;;;;;;27.50;38.30;;;;;;857161;23;810;-92
2022/06/19 01:44:43;;;;;;;;;;;27.50;38.70;;;;;;857166;23;884;-93
2022/06/19 01:45:04;;;;;;;;;;;27.50;38.40;;;;;;857348;23;794;-93
2022/06/19 01:45:25;;;;;;;;;;;27.50;38.50;;;;;;857143;23;755;-91
2022/06/19 01:45:48;;;;;;;;;;;27.50;38.50;;;;;;857249;23;940;-92
2022/06/19 01:46:09;;;;;;;;;;;27.50;38.50;;;;;;857243;23;782;-92
2022/06/19 01:46:30;;;;;;;;;;;27.50;38.90;;;;;;857424;23;845;-85
2022/06/19 01:46:51;;;;;;;;;;;27.50;38.70;;;;;;857115;23;821;-91
2022/06/19 01:47:11;;;;;;;;;;;27.50;38.50;;;;;;856821;23;1939;-92
2022/06/19 01:47:32;;;;;;;;;;;27.50;39.60;;;;;;857298;23;770;-93
2022/06/19 01:47:52;;;;;;;;;;;27.50;38.30;;;;;;857109;23;947;-90
2022/06/19 01:48:13;;;;;;;;;;;27.50;38.30;;;;;;857027;23;798;-92
2022/06/19 01:48:34;;;;;;;;;;;27.50;38.30;;;;;;857350;23;913;-90
2022/06/19 01:48:55;;;;;;;;;;;27.50;38.30;;;;;;857144;23;766;-93
2022/06/19 01:49:16;;;;;;;;;;;27.50;38.80;;;;;;857177;23;786;-92
2022/06/19 01:49:38;;;;;;;;;;;27.50;38.80;;;;;;857106;23;809;-89
2022/06/19 01:50:00;;;;;;;;;;;27.50;39.20;;;;;;857210;23;1314;-93
2022/06/19 01:50:25;;;;;;;;;;;27.50;39.10;;;;;;857090;23;790;-87
2022/06/19 01:50:45;;;;;;;;;;;27.50;38.80;;;;;;857239;23;809;-91
2022/06/19 01:51:12;;;;;;;;;;;27.50;38.80;;;;;;857196;23;448;-88
2022/06/19 01:51:33;;;;;;;;;;;27.50;38.70;;;;;;852739;23;1273;-92
2022/06/19 01:51:56;;;;;;;;;;;27.50;38.90;;;;;;853286;23;781;-94
2022/06/19 01:52:18;;;;;;;;;;;27.10;38.40;;;;;;852768;23;794;-91
2022/06/19 01:52:39;;;;;;;;;;;27.50;38.80;;;;;;848476;23;822;-93
2022/06/19 01:53:04;;;;;;;;;;;27.50;38.70;;;;;;848719;23;1469;-94
2022/06/19 01:53:48;;;;;;;;;;;27.50;38.60;;;;;;850904;23;833;-92
2022/06/19 01:54:14;;;;;;;;;;;27.50;38.60;;;;;;852451;23;1039;-90
2022/06/19 01:54:38;;;;;;;;;;;27.50;38.80;;;;;;852936;23;754;-91
2022/06/19 01:55:02;;;;;;;;;;;27.50;38.70;;;;;;856857;23;893;-92
2022/06/19 01:55:28;;;;;;;;;;;27.50;38.60;;;;;;857112;23;881;-91
2022/06/19 01:55:51;;;;;;;;;;;27.60;38.70;;;;;;857654;23;1211;-95
2022/06/19 01:56:12;;;;;;;;;;;27.60;38.70;;;;;;852629;23;826;-90
2022/06/19 01:56:32;;;;;;;;;;;27.50;38.60;;;;;;852675;23;1383;-92
2022/06/19 01:56:53;;;;;;;;;;;27.60;38.80;;;;;;852658;23;1686;-91
2022/06/19 01:57:14;;;;;;;;;;;27.50;38.60;;;;;;852940;23;793;-89
2022/06/19 01:57:36;;;;;;;;;;;27.60;38.70;;;;;;848168;23;1084;-93
2022/06/19 01:57:57;;;;;;;;;;;27.60;38.70;;;;;;848907;23;795;-92
2022/06/19 01:58:19;;;;;;;;;;;27.60;38.80;;;;;;848653;23;1379;-92
2022/06/19 01:58:42;;;;;;;;;;;27.60;38.70;;;;;;848883;23;720;-92
2022/06/19 01:59:09;;;;;;;;;;;27.60;38.60;;;;;;848783;23;830;-92
2022/06/19 01:59:31;;;;;;;;;;;27.60;38.50;;;;;;851774;23;1434;-91
2022/06/19 01:59:52;;;;;;;;;;;27.60;38.40;;;;;;852645;23;913;-91
2022/06/19 02:00:15;;;;;;;;;;;27.50;38.30;;;;;;852682;23;900;-91
2022/06/19 02:00:37;;;;;;;;;;;27.60;38.50;;;;;;852747;23;834;-82
2022/06/19 02:01:04;;;;;;;;;;;27.60;38.40;;;;;;852753;23;1437;-92
2022/06/19 02:01:27;;;;;;;;;;;27.60;38.40;;;;;;855827;23;810;-94
2022/06/19 02:01:50;;;;;;;;;;;27.60;38.40;;;;;;856964;23;781;-90
2022/06/19 02:02:12;;;;;;;;;;;27.60;38.40;;;;;;857162;23;786;-85
2022/06/19 02:02:34;;;;;;;;;;;27.60;38.60;;;;;;857141;23;741;-91
2022/06/19 02:03:15;;;;;;;;;;;27.60;38.40;;;;;;857047;23;876;-90
2022/06/19 02:03:43;;;;;;;;;;;27.60;38.50;;;;;;844330;23;1187;-90
2022/06/19 02:04:06;;;;;;;;;;;27.60;38.40;;;;;;857406;23;873;-90
2022/06/19 02:04:27;;;;;;;;;;;27.60;38.50;;;;;;856913;23;1218;-88
2022/06/19 02:04:48;;;;;;;;;;;27.60;38.40;;;;;;856881;23;843;-91
2022/06/19 02:05:08;;;;;;;;;;;27.60;38.50;;;;;;856926;23;782;-82
2022/06/19 02:05:30;;;;;;;;;;;27.60;38.40;;;;;;856948;23;959;-91
2022/06/19 02:05:51;;;;;;;;;;;27.60;38.50;;;;;;856893;23;1011;-89
2022/06/19 02:06:13;;;;;;;;;;;27.60;38.40;;;;;;855956;23;813;-86
2022/06/19 02:06:44;;;;;;;;;;;27.60;38.50;;;;;;857280;23;793;-91
2022/06/19 02:07:06;;;;;;;;;;;27.60;38.50;;;;;;857206;23;1154;-91
2022/06/19 02:07:28;;;;;;;;;;;27.60;38.50;;;;;;857271;23;1930;-88
2022/06/19 02:07:48;;;;;;;;;;;27.60;38.50;;;;;;857069;23;761;-90
2022/06/19 02:08:10;;;;;;;;;;;27.60;38.40;;;;;;857159;23;852;-92
2022/06/19 02:08:32;;;;;;;;;;;27.60;38.40;;;;;;857205;23;789;-90
2022/06/19 02:08:53;;;;;;;;;;;27.60;38.40;;;;;;857030;23;884;-89
2022/06/19 02:09:17;;;;;;;;;;;27.60;38.40;;;;;;857188;23;901;-89
2022/06/19 02:09:38;;;;;;;;;;;27.60;38.40;;;;;;856961;23;1315;-89
2022/06/19 02:10:00;;;;;;;;;;;27.60;38.40;;;;;;857245;23;782;-92
2022/06/19 02:10:21;;;;;;;;;;;27.60;38.50;;;;;;857058;23;805;-86
2022/06/19 02:10:44;;;;;;;;;;;27.60;38.40;;;;;;852808;23;1297;-92
2022/06/19 02:11:05;;;;;;;;;;;27.60;38.40;;;;;;852781;23;794;-93
2022/06/19 02:11:26;;;;;;;;;;;27.60;38.40;;;;;;852676;23;913;-93
2022/06/19 02:11:47;;;;;;;;;;;26.50;37.60;;;;;;852621;23;790;-92
2022/06/19 02:12:08;;;;;;;;;;;27.60;38.40;;;;;;852813;23;906;-92
2022/06/19 02:12:31;;;;;;;;;;;27.70;38.50;;;;;;854132;23;1100;-92
2022/06/19 02:12:53;;;;;;;;;;;27.60;38.40;;;;;;857084;23;806;-89
2022/06/19 02:13:15;;;;;;;;;;;27.60;38.60;;;;;;857233;23;852;-94
2022/06/19 02:13:37;;;;;;;;;;;27.60;38.40;;;;;;857115;23;781;-85
2022/06/19 02:13:58;;;;;;;;;;;27.70;38.50;;;;;;857201;23;845;-93
2022/06/19 02:14:19;;;;;;;;;;;27.60;38.40;;;;;;857081;23;828;-92
2022/06/19 02:14:40;;;;;;;;;;;27.60;38.50;;;;;;857119;23;936;-92
2022/06/19 02:15:05;;;;;;;;;;;27.60;38.40;;;;;;857500;23;762;-91
2022/06/19 02:15:25;;;;;;;;;;;27.60;38.40;;;;;;857061;23;912;-93
2022/06/19 02:15:47;;;;;;;;;;;27.60;38.40;;;;;;852564;23;1362;-93
2022/06/19 02:16:10;;;;;;;;;;;27.60;38.40;;;;;;852836;23;900;-93
2022/06/19 02:16:33;;;;;;;;;;;27.60;38.50;;;;;;852955;23;900;-87
2022/06/19 02:16:54;;;;;;;;;;;27.60;38.50;;;;;;852603;23;781;-93
2022/06/19 02:17:18;;;;;;;;;;;27.60;38.50;;;;;;852663;23;927;-92
2022/06/19 02:17:42;;;;;;;;;;;27.60;38.40;;;;;;855418;23;917;-93
2022/06/19 02:18:05;;;;;;;;;;;27.60;38.40;;;;;;857174;23;817;-94